Time;durP1;ratioP1;P1;durP2;ratioP2;P2;SDS_P1;SDS_P2;PMS_P1;PMS_P2;Temp;Humidity;BMP_temperature;BMP_pressure;BME280_temperature;BME280_humidity;BME280_pressure;Samples;Min_cycle;Max_cycle;Signal;HPM_P1;HPM_P2
2022/12/18 05:05:35;;;;;;;41.53;25.43;;;;;;;1.70;75.66;95484.81;1815394;79;21035;-46
2022/12/18 05:08:02;;;;;;;40.45;26.40;;;;;;;1.68;75.67;95491.19;1804896;79;20975;-47
2022/12/18 05:10:29;;;;;;;42.27;26.45;;;;;;;1.59;75.92;95498.83;1792056;79;20939;-48
2022/12/18 05:13:00;;;;;;;39.03;25.45;;;;;;;1.61;76.22;95510.88;1818966;79;21001;-48
2022/12/18 05:15:29;;;;;;;35.45;23.52;;;;;;;1.67;76.38;95505.31;1810465;79;20993;-47
2022/12/18 05:17:57;;;;;;;39.23;22.70;;;;;;;1.72;76.28;95504.97;1808703;79;21098;-48
2022/12/18 05:20:24;;;;;;;35.83;23.22;;;;;;;1.73;75.60;95516.02;1811268;79;21140;-50
2022/12/18 05:22:53;;;;;;;41.58;24.82;;;;;;;1.69;75.44;95515.20;1791720;79;21527;-49
2022/12/18 05:25:20;;;;;;;37.05;25.05;;;;;;;1.58;75.27;95521.11;1805072;79;21041;-49
2022/12/18 05:27:47;;;;;;;59.08;37.83;;;;;;;1.54;75.70;95525.69;1801175;79;20954;-49
2022/12/18 05:30:14;;;;;;;59.38;36.45;;;;;;;1.58;75.91;95525.18;1803550;79;21991;-48
2022/12/18 05:32:41;;;;;;;65.52;37.48;;;;;;;1.58;75.62;95525.73;1807723;79;20971;-48
2022/12/18 05:35:09;;;;;;;54.30;32.90;;;;;;;1.51;75.79;95529.15;1787154;79;20956;-51
2022/12/18 05:37:36;;;;;;;57.35;34.78;;;;;;;1.45;75.92;95529.28;1789901;79;20964;-48
2022/12/18 05:40:04;;;;;;;68.15;39.25;;;;;;;1.33;75.79;95534.94;1807036;78;21075;-47
2022/12/18 05:42:31;;;;;;;70.08;39.42;;;;;;;1.18;76.16;95538.62;1791227;78;21224;-46
2022/12/18 05:44:59;;;;;;;67.08;39.13;;;;;;;0.99;76.63;95542.81;1802818;79;21526;-47
2022/12/18 05:47:28;;;;;;;65.78;38.08;;;;;;;0.93;77.23;95549.70;1797750;79;20965;-48
2022/12/18 05:49:55;;;;;;;69.25;36.77;;;;;;;0.84;77.83;95551.92;1772681;79;20970;-49
2022/12/18 05:52:21;;;;;;;60.12;34.60;;;;;;;0.85;78.08;95562.95;1812184;79;21513;-48
2022/12/18 05:54:48;;;;;;;66.82;37.30;;;;;;;0.81;78.07;95568.87;1809451;79;21993;-48
2022/12/18 05:57:15;;;;;;;67.35;38.15;;;;;;;0.74;78.21;95566.07;1808133;79;21049;-48
2022/12/18 05:59:41;;;;;;;59.90;33.55;;;;;;;0.76;78.77;95574.61;1766591;80;21447;-48
2022/12/18 06:02:08;;;;;;;61.68;34.15;;;;;;;0.81;78.56;95579.70;1799522;79;21482;-47
2022/12/18 06:04:35;;;;;;;57.67;32.40;;;;;;;0.80;78.59;95583.55;1791370;78;21487;-49
2022/12/18 06:07:04;;;;;;;64.42;34.95;;;;;;;0.84;78.84;95589.03;1807387;78;21843;-48
2022/12/18 06:09:31;;;;;;;57.88;35.30;;;;;;;0.87;78.77;95586.39;1804611;79;21112;-48
2022/12/18 06:11:58;;;;;;;66.02;38.95;;;;;;;0.94;79.27;95596.55;1814009;79;21013;-48
2022/12/18 06:14:25;;;;;;;212.75;111.95;;;;;;;1.05;79.06;95602.88;1819346;78;20967;-49
2022/12/18 06:16:52;;;;;;;129.10;70.65;;;;;;;1.08;78.87;95602.94;1758197;79;21038;-49
2022/12/18 06:19:19;;;;;;;128.35;69.65;;;;;;;1.08;78.60;95612.42;1780239;80;21246;-49
2022/12/18 06:21:46;;;;;;;115.05;64.75;;;;;;;1.12;78.71;95615.95;1749109;80;20956;-48
2022/12/18 06:24:13;;;;;;;93.03;51.05;;;;;;;1.17;78.74;95618.34;1770039;80;20947;-47
2022/12/18 06:26:40;;;;;;;105.17;60.25;;;;;;;1.22;78.39;95611.27;1753994;80;21495;-47
2022/12/18 06:29:06;;;;;;;104.38;60.65;;;;;;;1.20;78.41;95613.57;1761029;80;20970;-48
2022/12/18 06:31:33;;;;;;;113.22;63.83;;;;;;;1.15;78.59;95635.55;1764716;80;21427;-48
2022/12/18 06:34:03;;;;;;;107.05;63.17;;;;;;;1.17;78.60;95629.19;1781971;80;20965;-48
2022/12/18 06:36:30;;;;;;;103.50;59.83;;;;;;;1.10;78.00;95627.73;1753854;80;20986;-48
2022/12/18 06:38:57;;;;;;;93.00;55.43;;;;;;;1.03;78.75;95632.27;1783988;80;21510;-48
2022/12/18 06:41:24;;;;;;;91.40;53.95;;;;;;;1.10;78.82;95633.75;1754440;80;21067;-47
2022/12/18 06:43:50;;;;;;;90.30;52.00;;;;;;;1.18;78.96;95632.69;1774110;79;21234;-48
2022/12/18 06:46:17;;;;;;;91.80;54.38;;;;;;;1.23;78.54;95636.43;1802543;79;20990;-48
2022/12/18 06:48:49;;;;;;;95.85;52.13;;;;;;;1.26;78.72;95632.42;1797063;79;21136;-48
2022/12/18 06:51:22;;;;;;;93.82;51.68;;;;;;;1.35;78.86;95641.05;1741862;81;21618;-49
2022/12/18 06:53:49;;;;;;;;;;;;;;;1.47;78.45;95644.14;1729925;81;21575;-48
2022/12/18 06:56:16;;;;;;;94.60;51.08;;;;;;;1.48;78.31;95656.55;1722144;82;20632;-47
2022/12/18 06:58:43;;;;;;;106.47;56.50;;;;;;;1.50;78.36;95655.02;1724836;81;21622;-47
2022/12/18 07:01:11;;;;;;;98.12;55.12;;;;;;;1.58;78.23;95651.27;1714535;82;21612;-48
2022/12/18 07:03:41;;;;;;;73.25;40.50;;;;;;;1.65;78.24;95662.78;1793408;80;20987;-47
2022/12/18 07:06:14;;;;;;;64.40;39.18;;;;;;;1.69;77.67;95667.67;1806575;78;21040;-48
2022/12/18 07:08:41;;;;;;;59.25;35.68;;;;;;;1.67;77.89;95670.73;1740445;81;21170;-47
2022/12/18 07:11:07;;;;;;;76.37;45.58;;;;;;;1.72;77.73;95671.77;1794368;78;21440;-49
2022/12/18 07:13:34;;;;;;;64.05;40.58;;;;;;;1.77;77.15;95668.75;1714401;82;21597;-48
2022/12/18 07:16:13;;;;;;;69.77;42.05;;;;;;;1.74;76.86;95676.27;1784965;78;20938;-47
2022/12/18 07:18:39;;;;;;;67.12;40.30;;;;;;;1.70;76.88;95678.13;1786475;79;21438;-48
2022/12/18 07:21:07;;;;;;;63.95;37.95;;;;;;;1.74;76.89;95683.05;1803347;78;21236;-48
2022/12/18 07:23:34;;;;;;;66.05;38.23;;;;;;;1.81;76.88;95685.25;1797723;78;21076;-49
2022/12/18 07:26:10;;;;;;;55.83;35.08;;;;;;;1.86;76.75;95688.22;1805701;79;20966;-49
2022/12/18 07:28:38;;;;;;;71.00;41.77;;;;;;;1.98;76.57;95695.55;1797034;79;20983;-48
2022/12/18 07:31:11;;;;;;;87.33;47.85;;;;;;;2.05;76.36;95696.20;1788113;78;21024;-47
2022/12/18 07:33:38;;;;;;;83.62;48.17;;;;;;;2.19;76.29;95697.73;1722544;82;21241;-47
2022/12/18 07:36:06;;;;;;;127.80;71.53;;;;;;;2.32;75.94;95705.84;1732143;82;20979;-47
2022/12/18 07:39:11;;;;;;;120.02;68.72;;;;;;;2.38;75.47;95704.35;1723407;82;21621;-46
2022/12/18 07:41:45;;;;;;;175.32;92.55;;;;;;;2.37;75.12;95704.15;1715153;82;21081;-47
2022/12/18 07:44:11;;;;;;;127.30;73.12;;;;;;;2.38;75.16;95711.14;1674410;83;21566;-56
2022/12/18 07:46:40;;;;;;;97.45;56.45;;;;;;;2.33;74.91;95712.25;1691151;84;21566;-46
2022/12/18 07:49:08;;;;;;;82.40;48.52;;;;;;;2.26;75.23;95717.61;1694997;82;21092;-48
2022/12/18 07:51:37;;;;;;;57.45;36.23;;;;;;;2.22;75.00;95726.85;1676347;84;21110;-47
2022/12/18 07:54:05;;;;;;;54.15;32.05;;;;;;;2.18;74.69;95733.59;1680196;85;21555;-47
2022/12/18 07:56:34;;;;;;;72.97;41.08;;;;;;;2.13;74.32;95731.20;1664886;85;21204;-48
2022/12/18 07:59:05;;;;;;;89.22;45.17;;;;;;;2.18;74.04;95739.61;1675160;84;21839;-48
2022/12/18 08:01:33;;;;;;;72.67;38.25;;;;;;;2.24;73.25;95744.91;1685167;83;21165;-47
2022/12/18 12:36:44;;;;;;;26.73;17.48;;;;;;;7.59;45.39;95829.80;1826200;77;26392;-49
2022/12/18 12:39:14;;;;;;;27.65;17.35;;;;;;;6.96;46.50;95844.41;1750860;80;21068;-48
2022/12/18 12:44:43;;;;;;;28.65;18.55;;;;;;;5.54;49.63;95855.09;1752883;80;20981;-47
2022/12/18 12:47:26;;;;;;;29.72;20.20;;;;;;;4.98;50.99;95852.22;1739602;81;21186;-49
2022/12/18 12:49:52;;;;;;;;;;;;;;;4.44;52.17;95857.80;1714184;82;21097;-47
2022/12/18 12:52:42;;;;;;;37.45;21.35;;;;;;;4.04;53.58;95861.26;1717937;82;20177;-48
2022/12/18 12:55:17;;;;;;;36.40;20.72;;;;;;;3.61;54.66;95858.77;1679720;83;21244;-49
2022/12/18 12:58:06;;;;;;;40.15;24.30;;;;;;;3.04;56.28;95865.37;1633108;86;21084;-50
2022/12/18 13:00:48;;;;;;;42.27;23.62;;;;;;;2.57;58.08;95874.71;1589671;88;21572;-47
2022/12/18 13:03:43;;;;;;;45.23;24.92;;;;;;;2.39;60.00;95874.25;1582408;88;21139;-51
2022/12/18 13:06:23;;;;;;;58.73;30.88;;;;;;;2.88;59.70;95878.37;1637432;86;21397;-48
2022/12/18 13:08:57;;;;;;;58.98;31.30;;;;;;;3.40;58.96;95882.86;1600479;89;21517;-47
2022/12/18 13:14:39;;;;;;;40.25;24.18;;;;;;;3.95;57.27;95878.48;1531524;92;21043;-49
2022/12/18 13:17:25;;;;;;;47.15;25.97;;;;;;;3.76;56.97;95889.03;1554985;90;21050;-47
2022/12/18 13:20:08;;;;;;;42.53;24.40;;;;;;;3.37;57.75;95901.25;1570381;90;21135;-49
2022/12/18 13:22:44;;;;;;;37.55;22.22;;;;;;;2.87;58.58;95903.98;1486440;93;21225;-47
2022/12/18 13:25:32;;;;;;;37.20;21.33;;;;;;;2.45;59.87;95919.73;1483265;93;21189;-47
2022/12/18 13:28:14;;;;;;;42.15;23.65;;;;;;;2.13;60.49;95916.35;1451701;97;21134;-49
2022/12/18 13:30:45;;;;;;;48.05;25.40;;;;;;;1.76;62.05;95918.84;1452601;96;21442;-47
2022/12/18 13:33:20;;;;;;;49.35;29.25;;;;;;;1.45;62.79;95917.51;1451802;97;21157;-47
2022/12/18 13:35:54;;;;;;;51.02;27.73;;;;;;;1.17;63.89;95921.07;1451247;97;21233;-49
2022/12/18 13:38:40;;;;;;;56.15;31.05;;;;;;;1.03;64.46;95926.21;1453285;98;21164;-47
2022/12/18 13:41:26;;;;;;;52.85;27.70;;;;;;;0.89;65.40;95932.14;1439369;97;21245;-48
2022/12/18 13:43:57;;;;;;;53.42;29.30;;;;;;;0.69;65.69;95940.05;1480696;95;21243;-48
2022/12/18 13:46:46;;;;;;;51.05;28.35;;;;;;;0.58;66.23;95945.79;1472299;95;21209;-47
2022/12/18 13:49:37;;;;;;;46.73;26.77;;;;;;;0.50;66.81;95948.14;1409574;99;21359;-48
2022/12/18 13:52:21;;;;;;;48.15;27.17;;;;;;;0.41;67.04;95944.83;1408750;100;21625;-47
2022/12/18 13:54:59;;;;;;;56.45;30.52;;;;;;;0.37;67.34;95948.03;1414205;97;21275;-48
2022/12/18 13:57:35;;;;;;;42.67;25.57;;;;;;;0.38;67.83;95959.08;1437879;97;21280;-46
2022/12/18 14:00:26;;;;;;;43.80;23.55;;;;;;;0.37;67.93;95958.86;1451980;96;21174;-47
2022/12/18 14:02:53;;;;;;;38.25;23.00;;;;;;;0.34;67.99;95969.59;1478755;94;21223;-47
2022/12/18 14:05:29;;;;;;;49.42;26.48;;;;;;;0.31;68.35;95974.36;1491686;94;21530;-47
2022/12/18 14:08:08;;;;;;;45.10;25.00;;;;;;;0.23;68.55;95959.88;1492178;94;21173;-47
2022/12/18 14:10:35;;;;;;;42.23;24.67;;;;;;;0.11;69.15;95960.01;1476329;95;21359;-46
2022/12/18 14:13:10;;;;;;;45.25;26.42;;;;;;;-0.02;69.30;95975.89;1474965;94;21067;-47
2022/12/18 14:15:42;;;;;;;50.95;28.25;;;;;;;-0.16;70.28;95983.66;1472142;94;21303;-48
2022/12/18 14:18:48;;;;;;;47.57;25.87;;;;;;;-0.31;70.40;95992.53;1494492;95;21543;-46
2022/12/18 14:21:28;;;;;;;47.70;26.37;;;;;;;-0.38;71.00;95992.36;1518555;93;21061;-46
2022/12/18 14:24:20;;;;;;;48.68;26.62;;;;;;;-0.42;71.33;95999.60;1498645;94;21102;-51
2022/12/18 14:26:49;;;;;;;48.60;27.13;;;;;;;-0.42;71.63;96003.66;1444697;98;21304;-51
2022/12/18 14:29:26;;;;;;;47.70;26.80;;;;;;;-0.46;71.96;95998.70;1433248;98;21370;-45
2022/12/18 14:32:18;;;;;;;48.68;27.73;;;;;;;-0.42;72.25;96006.36;1414118;100;21161;-47
2022/12/18 14:34:48;;;;;;;54.80;30.37;;;;;;;-0.40;72.35;96008.91;1374503;102;21176;-46
2022/12/18 14:37:19;;;;;;;47.85;26.23;;;;;;;-0.35;72.42;96013.29;1345948;104;21117;-48
2022/12/18 14:39:57;;;;;;;56.60;29.98;;;;;;;-0.33;72.60;96016.43;1334099;105;21302;-46
2022/12/18 14:42:28;;;;;;;47.58;25.77;;;;;;;-0.30;72.71;96021.14;1317104;106;21270;-49
2022/12/18 14:45:41;;;;;;;54.20;29.45;;;;;;;-0.25;72.59;96018.20;1428342;98;21200;-48
2022/12/18 14:48:21;;;;;;;61.70;33.93;;;;;;;-0.21;72.54;96019.07;1449220;94;21115;-48
2022/12/18 14:51:19;;;;;;;47.38;25.52;;;;;;;-0.20;72.53;96026.81;1464044;96;21155;-47
2022/12/18 14:54:00;;;;;;;47.95;26.52;;;;;;;-0.15;72.37;96037.40;1461710;95;21108;-46
2022/12/18 14:56:35;;;;;;;57.13;30.02;;;;;;;-0.15;72.22;96042.01;1475942;95;21869;-46
2022/12/18 14:59:16;;;;;;;58.68;30.20;;;;;;;-0.17;72.23;96042.92;1468873;96;21064;-47
2022/12/18 15:01:50;;;;;;;62.17;30.55;;;;;;;-0.16;72.27;96046.64;1481595;92;21770;-46
2022/12/18 15:04:35;;;;;;;62.58;35.33;;;;;;;-0.09;72.22;96046.81;1514892;92;21549;-46
2022/12/18 15:07:14;;;;;;;58.23;33.08;;;;;;;-0.05;72.05;96044.98;1531702;92;21104;-47
2022/12/18 15:10:02;;;;;;;62.95;31.90;;;;;;;-0.03;72.26;96050.05;1532319;92;21299;-47
2022/12/18 15:12:43;;;;;;;58.90;30.12;;;;;;;0.04;72.23;96050.44;1531162;92;21170;-47
2022/12/18 15:15:40;;;;;;;57.90;31.00;;;;;;;0.10;71.88;96057.73;1530107;92;21642;-50
2022/12/18 15:18:29;;;;;;;58.68;32.70;;;;;;;0.13;71.85;96054.33;1536702;92;21211;-47
2022/12/18 15:20:59;;;;;;;61.53;32.23;;;;;;;0.13;71.66;96063.24;1529143;92;21115;-46
2022/12/18 15:23:48;;;;;;;64.70;34.03;;;;;;;0.15;71.46;96069.09;1538273;92;21196;-46
2022/12/18 15:26:17;;;;;;;69.15;35.88;;;;;;;0.13;71.40;96063.24;1542298;92;21108;-49
2022/12/18 15:28:55;;;;;;;76.95;36.50;;;;;;;0.15;71.09;96067.73;1534303;89;21060;-47
2022/12/18 15:31:36;;;;;;;121.82;49.23;;;;;;;0.15;71.09;96077.75;1509807;91;21115;-48
2022/12/18 15:34:10;;;;;;;87.47;42.80;;;;;;;0.07;70.89;96078.14;1582739;86;21846;-46
2022/12/18 15:36:38;;;;;;;81.87;41.95;;;;;;;0.03;71.06;96075.92;1633716;85;21284;-48
2022/12/18 15:39:05;;;;;;;83.80;41.60;;;;;;;0.04;71.10;96081.55;1671750;83;21130;-47
2022/12/18 15:41:35;;;;;;;503.65;189.18;;;;;;;-0.01;70.93;96083.72;1708981;82;21054;-46
2022/12/18 15:44:03;;;;;;;188.65;69.67;;;;;;;-0.08;71.14;96089.53;1705551;83;21096;-47
2022/12/18 15:46:30;;;;;;;109.52;44.73;;;;;;;-0.05;71.16;96091.54;1702406;83;21032;-46
2022/12/18 15:48:57;;;;;;;61.98;30.72;;;;;;;-0.03;70.83;96089.27;1707409;83;21355;-47
2022/12/18 15:51:35;;;;;;;60.83;29.87;;;;;;;-0.10;70.92;96098.53;1702478;83;20999;-46
2022/12/18 15:54:04;;;;;;;61.13;31.12;;;;;;;-0.08;71.25;96102.47;1702091;83;21159;-47
2022/12/18 15:59:19;;;;;;;56.50;29.10;;;;;;;-0.01;70.93;96111.56;1704306;83;21667;-47
2022/12/18 20:06:12;;;;;;;53.25;28.50;;;;;;;-2.21;75.96;96320.97;1832875;77;26213;-48
2022/12/18 20:08:39;;;;;;;;;;;;;;;-2.18;75.91;96315.48;1776823;80;21457;-48
2022/12/18 20:11:06;;;;;;;55.95;28.62;;;;;;;-2.08;75.77;96317.23;1796644;78;21228;-48
2022/12/18 20:13:34;;;;;;;60.15;27.67;;;;;;;-2.03;75.61;96318.38;1795528;78;21005;-48
2022/12/18 20:16:00;;;;;;;56.42;26.30;;;;;;;-1.94;75.62;96315.04;1775697;78;21057;-47
2022/12/18 20:18:27;;;;;;;52.38;26.87;;;;;;;-1.85;75.28;96317.66;1792412;78;21573;-47
2022/12/18 20:20:54;;;;;;;47.78;26.27;;;;;;;-1.79;74.99;96315.79;1813822;78;21082;-48
2022/12/18 20:23:24;;;;;;;58.50;27.93;;;;;;;-1.70;74.76;96316.52;1796773;78;21252;-49
2022/12/18 20:25:54;;;;;;;52.83;27.60;;;;;;;-1.60;74.66;96311.50;1781494;79;20985;-51
2022/12/18 20:28:22;;;;;;;46.28;25.27;;;;;;;-1.46;74.36;96316.05;1785455;78;21077;-47
2022/12/18 20:30:48;;;;;;;46.05;24.92;;;;;;;-1.35;73.67;96319.13;1784383;79;21066;-49
2022/12/18 20:33:15;;;;;;;55.52;28.40;;;;;;;-1.37;73.00;96322.69;1800587;78;21092;-65
2022/12/18 20:35:42;;;;;;;60.50;29.95;;;;;;;-1.45;72.97;96328.97;1802880;78;21288;-49
2022/12/18 20:38:11;;;;;;;52.00;26.97;;;;;;;-1.50;72.94;96329.19;1792713;79;20981;-49
2022/12/18 20:40:41;;;;;;;51.58;27.50;;;;;;;-1.52;72.88;96335.48;1790826;78;20970;-48
2022/12/18 20:43:08;;;;;;;56.92;29.45;;;;;;;-1.53;72.93;96342.00;1783799;79;21032;-49
2022/12/18 20:45:36;;;;;;;58.33;31.97;;;;;;;-1.49;73.11;96345.60;1794096;79;21014;-48
2022/12/18 20:48:03;;;;;;;60.67;30.05;;;;;;;-1.40;73.10;96346.30;1801991;78;21244;-48
2022/12/18 20:50:30;;;;;;;73.62;34.25;;;;;;;-1.29;73.02;96354.99;1809495;78;20955;-48
2022/12/18 20:52:56;;;;;;;57.88;27.80;;;;;;;-1.13;72.77;96349.77;1783603;78;20973;-49
2022/12/18 20:55:23;;;;;;;69.75;37.73;;;;;;;-0.98;72.46;96343.73;1798547;78;21042;-47
2022/12/18 20:57:51;;;;;;;97.37;40.85;;;;;;;-0.80;72.14;96332.95;1802155;78;21065;-49
2022/12/18 21:00:18;;;;;;;83.03;37.93;;;;;;;-0.64;71.34;96340.05;1795236;78;21255;-48
2022/12/18 21:02:45;;;;;;;87.82;38.90;;;;;;;-0.63;70.66;96342.20;1792553;78;20920;-49
2022/12/18 21:05:12;;;;;;;64.90;33.20;;;;;;;-0.62;70.44;96345.91;1813802;78;20950;-47
2022/12/18 21:07:40;;;;;;;72.62;33.58;;;;;;;-0.59;70.28;96335.00;1756261;79;21493;-48
2022/12/18 21:10:08;;;;;;;53.95;28.60;;;;;;;-0.63;69.64;96345.69;1794261;78;20958;-48
2022/12/18 21:12:39;;;;;;;60.45;28.83;;;;;;;-0.81;69.56;96347.59;1786077;78;21839;-49
2022/12/18 21:15:06;;;;;;;59.20;29.52;;;;;;;-0.95;69.83;96334.37;1799472;78;21469;-50
2022/12/18 21:17:33;;;;;;;52.60;28.67;;;;;;;-0.98;70.05;96341.03;1790878;78;20962;-51
2022/12/18 21:20:00;;;;;;;67.65;31.87;;;;;;;-0.97;69.97;96342.61;1803189;79;20970;-49
2022/12/18 21:22:27;;;;;;;84.92;39.63;;;;;;;-0.94;69.95;96345.41;1805625;78;21505;-49
2022/12/18 21:24:53;;;;;;;79.25;39.85;;;;;;;-0.92;69.67;96346.44;1800570;79;22144;-50
2022/12/18 21:27:20;;;;;;;75.35;38.60;;;;;;;-0.96;69.60;96349.01;1786710;78;20955;-48
2022/12/18 21:29:47;;;;;;;77.85;39.73;;;;;;;-1.01;69.44;96347.08;1778502;79;21024;-51
2022/12/18 21:32:14;;;;;;;88.47;43.85;;;;;;;-1.11;69.30;96348.88;1799466;78;20983;-48
2022/12/18 21:34:41;;;;;;;98.60;46.18;;;;;;;-1.22;69.55;96353.91;1769442;78;20962;-49
2022/12/18 21:37:07;;;;;;;94.67;48.42;;;;;;;-1.23;69.79;96355.58;1798077;78;21283;-49
2022/12/18 21:39:34;;;;;;;90.83;47.43;;;;;;;-1.22;69.92;96363.91;1796747;79;20954;-48
2022/12/18 21:44:47;;;;;;;87.45;42.95;;;;;;;-1.32;69.95;96358.36;1774243;79;21041;-49
2022/12/18 21:47:13;;;;;;;84.42;43.02;;;;;;;-1.36;70.06;96362.85;1748031;78;21027;-49
2022/12/18 21:49:40;;;;;;;80.25;41.42;;;;;;;-1.39;70.13;96366.77;1806330;78;21214;-49
2022/12/18 21:52:07;;;;;;;88.30;42.38;;;;;;;-1.47;70.13;96363.59;1759597;79;21040;-48
2022/12/18 21:54:34;;;;;;;88.17;43.83;;;;;;;-1.52;70.43;96366.51;1802879;79;21454;-49
2022/12/18 21:57:02;;;;;;;85.85;44.38;;;;;;;-1.53;70.80;96373.02;1766663;80;21488;-49
2022/12/18 21:59:35;;;;;;;79.80;39.42;;;;;;;-1.51;70.78;96377.53;1813131;78;21040;-49
